createdAt,value
2018-07-08T00:01:04.881Z,43.60
2018-07-08T00:03:33.052Z,42.70
2018-07-08T00:06:01.135Z,43.55
2018-07-08T00:08:29.227Z,43.42
2018-07-08T00:10:58.976Z,43.59
2018-07-08T00:13:27.940Z,43.63
2018-07-08T00:15:56.067Z,43.74
2018-07-08T00:18:24.843Z,43.82
2018-07-08T00:20:54.137Z,43.41
2018-07-08T00:23:22.936Z,43.00
2018-07-08T00:25:51.036Z,43.86
2018-07-08T00:28:19.182Z,43.46
2018-07-08T00:30:47.297Z,43.28
2018-07-08T00:33:15.384Z,43.58
2018-07-08T00:35:43.464Z,44.03
2018-07-08T00:38:11.624Z,43.96
2018-07-08T00:40:39.730Z,42.82
2018-07-08T00:43:07.825Z,43.29
2018-07-08T00:45:35.910Z,43.68
2018-07-08T00:48:04.013Z,43.98
2018-07-08T00:50:32.129Z,43.68
2018-07-08T00:53:00.264Z,44.58
2018-07-08T00:55:28.372Z,42.99
2018-07-08T00:57:56.456Z,44.42
2018-07-08T01:00:29.344Z,44.44
2018-07-08T01:02:58.195Z,44.82
2018-07-08T01:05:26.485Z,43.81
2018-07-08T01:07:54.585Z,44.61
2018-07-08T01:10:22.764Z,44.95
2018-07-08T01:12:50.877Z,44.98
2018-07-08T01:15:18.971Z,45.18
2018-07-08T01:17:47.039Z,44.51
2018-07-08T01:20:15.133Z,44.84
2018-07-08T01:22:43.285Z,44.86
2018-07-08T01:25:14.782Z,44.87
2018-07-08T01:27:42.866Z,46.54
2018-07-08T01:30:12.467Z,44.99
2018-07-08T01:32:40.613Z,46.75
2018-07-08T01:35:08.704Z,45.52
2018-07-08T01:37:36.811Z,46.43
2018-07-08T01:40:05.171Z,46.05
2018-07-08T01:42:33.259Z,45.78
2018-07-08T01:45:01.710Z,45.80
2018-07-08T01:47:29.874Z,45.20
2018-07-08T01:49:58.487Z,46.57
2018-07-08T01:52:26.854Z,46.50
2018-07-08T01:54:55.635Z,47.13
2018-07-08T01:57:24.570Z,46.09
2018-07-08T01:59:53.007Z,46.54
2018-07-08T02:02:21.709Z,46.68
2018-07-08T02:04:50.399Z,46.09
2018-07-08T02:07:18.527Z,45.95
2018-07-08T02:09:47.154Z,45.98
2018-07-08T02:12:15.435Z,47.19
2018-07-08T02:14:43.820Z,48.25
2018-07-08T02:17:11.966Z,47.70
2018-07-08T02:19:40.093Z,47.83
2018-07-08T02:22:08.182Z,48.13
2018-07-08T02:24:36.255Z,48.94
2018-07-08T02:27:04.497Z,47.64
2018-07-08T02:29:32.951Z,49.04
2018-07-08T02:32:01.040Z,49.25
2018-07-08T02:34:29.140Z,48.44
2018-07-08T02:36:57.380Z,49.95
2018-07-08T02:39:25.567Z,49.69
2018-07-08T02:41:53.949Z,49.63
2018-07-08T02:44:22.186Z,51.05
2018-07-08T02:46:50.427Z,50.84
2018-07-08T02:49:19.220Z,51.56
2018-07-08T02:51:47.860Z,51.57
2018-07-08T02:54:16.627Z,51.92
2018-07-08T02:56:44.751Z,52.08
2018-07-08T02:59:12.958Z,51.16
2018-07-08T03:01:41.049Z,52.46
2018-07-08T03:04:09.131Z,51.93
2018-07-08T03:06:37.218Z,51.70
2018-07-08T03:09:06.371Z,51.38
2018-07-08T03:11:34.618Z,51.70
2018-07-08T03:14:02.779Z,51.10
2018-07-08T03:16:30.935Z,52.36
2018-07-08T03:18:59.116Z,52.09
2018-07-08T03:21:27.378Z,52.20
2018-07-08T03:23:55.470Z,52.11
2018-07-08T03:26:23.573Z,52.03
2018-07-08T03:28:51.667Z,52.08
2018-07-08T03:31:19.744Z,52.27
2018-07-08T03:33:47.840Z,51.27
2018-07-08T03:36:16.554Z,51.30
2018-07-08T03:38:44.733Z,51.73
2018-07-08T03:41:12.836Z,52.36
2018-07-08T03:43:40.939Z,51.79
2018-07-08T03:46:09.118Z,52.38
2018-07-08T03:48:37.521Z,51.55
2018-07-08T03:51:06.231Z,50.74
2018-07-08T03:53:34.295Z,52.04
2018-07-08T03:56:02.449Z,51.18
2018-07-08T03:58:31.071Z,50.66
2018-07-08T04:00:59.258Z,51.69
2018-07-08T04:03:27.383Z,52.13
2018-07-08T04:05:55.783Z,51.56
2018-07-08T04:08:23.831Z,52.30
2018-07-08T04:10:52.131Z,51.73
2018-07-08T04:13:20.234Z,51.28
2018-07-08T04:15:48.319Z,51.86
2018-07-08T04:18:16.519Z,51.66
2018-07-08T04:20:44.591Z,51.17
2018-07-08T04:23:12.635Z,52.09
2018-07-08T04:25:40.685Z,51.77
2018-07-08T04:28:08.787Z,51.20
2018-07-08T04:30:36.836Z,51.15
2018-07-08T04:33:04.896Z,51.81
2018-07-08T04:35:32.947Z,51.03
2018-07-08T04:38:01.009Z,51.32
2018-07-08T04:40:29.284Z,51.64
2018-07-08T04:42:57.379Z,50.64
2018-07-08T04:45:25.495Z,51.32
2018-07-08T04:47:53.527Z,51.64
2018-07-08T04:50:21.602Z,51.03
2018-07-08T04:52:49.652Z,51.59
2018-07-08T04:55:17.682Z,50.70
2018-07-08T04:57:45.779Z,51.18
2018-07-08T05:00:13.852Z,50.33
2018-07-08T05:02:41.926Z,50.47
2018-07-08T05:05:09.983Z,50.86
2018-07-08T05:07:38.051Z,50.81
2018-07-08T05:10:06.167Z,50.57
2018-07-08T05:12:34.265Z,51.04
2018-07-08T05:15:02.624Z,50.64
2018-07-08T05:17:30.686Z,50.37
2018-07-08T05:19:59.318Z,50.17
2018-07-08T05:22:27.399Z,50.85
2018-07-08T05:24:55.471Z,50.54
2018-07-08T05:27:23.548Z,50.18
2018-07-08T05:29:51.632Z,52.14
2018-07-08T05:32:19.683Z,50.39
2018-07-08T05:34:47.752Z,50.77
2018-07-08T05:37:15.815Z,49.71
2018-07-08T05:39:43.881Z,50.37
2018-07-08T05:42:11.949Z,50.24
2018-07-08T05:44:40.021Z,49.99
2018-07-08T05:47:08.076Z,50.68
2018-07-08T05:49:36.156Z,49.67
2018-07-08T05:52:04.210Z,49.98
2018-07-08T05:54:32.288Z,49.37
2018-07-08T05:57:00.399Z,49.71
2018-07-08T05:59:28.493Z,50.01
2018-07-08T06:01:56.560Z,49.61
2018-07-08T06:04:24.622Z,49.01
2018-07-08T06:06:52.695Z,49.20
2018-07-08T06:09:20.775Z,48.51
2018-07-08T06:11:48.850Z,49.07
2018-07-08T06:14:16.882Z,48.62
2018-07-08T06:16:44.964Z,48.27
2018-07-08T06:19:13.043Z,47.86
2018-07-08T06:21:41.127Z,47.82
2018-07-08T06:24:09.197Z,48.59
2018-07-08T06:26:37.254Z,48.16
2018-07-08T06:29:05.475Z,47.95
2018-07-08T06:31:33.647Z,48.56
2018-07-08T06:34:01.714Z,47.55
2018-07-08T06:36:29.779Z,48.13
2018-07-08T06:38:57.908Z,47.68
2018-07-08T06:41:26.026Z,47.57
2018-07-08T06:43:54.140Z,47.06
2018-07-08T06:46:22.238Z,47.13
2018-07-08T06:48:50.311Z,47.06
2018-07-08T06:51:18.388Z,47.21
2018-07-08T06:53:46.574Z,47.23
2018-07-08T06:56:14.730Z,46.90
2018-07-08T06:58:42.799Z,46.25
2018-07-08T07:01:10.871Z,46.33
2018-07-08T07:03:38.987Z,45.58
2018-07-08T07:06:07.071Z,46.14
2018-07-08T07:08:35.167Z,46.24
2018-07-08T07:11:03.236Z,45.43
2018-07-08T07:13:31.316Z,46.09
2018-07-08T07:15:59.925Z,45.48
2018-07-08T07:18:28.008Z,45.51
2018-07-08T07:20:56.065Z,45.68
2018-07-08T07:23:24.131Z,45.35
2018-07-08T07:25:52.190Z,46.13
2018-07-08T07:28:20.271Z,45.88
2018-07-08T07:30:48.335Z,45.83
2018-07-08T07:33:16.392Z,46.20
2018-07-08T07:35:44.455Z,45.00
2018-07-08T07:38:12.517Z,44.58
2018-07-08T07:40:40.575Z,44.63
2018-07-08T07:43:08.635Z,43.77
2018-07-08T07:45:36.703Z,44.82
2018-07-08T07:48:05.525Z,43.65
2018-07-08T07:50:33.583Z,43.09
2018-07-08T07:53:01.656Z,44.00
2018-07-08T07:55:30.013Z,44.10
2018-07-08T07:57:58.073Z,43.81
2018-07-08T08:00:26.139Z,42.84
2018-07-08T08:02:54.212Z,41.92
2018-07-08T08:05:22.292Z,43.16
2018-07-08T08:07:50.453Z,42.40
2018-07-08T08:10:18.575Z,41.58
2018-07-08T08:12:46.647Z,42.31
2018-07-08T08:15:14.723Z,41.03
2018-07-08T08:17:42.794Z,40.74
2018-07-08T08:20:11.131Z,40.94
2018-07-08T08:22:39.188Z,42.43
2018-07-08T08:25:07.279Z,41.61
2018-07-08T08:27:35.354Z,40.09
2018-07-08T08:30:03.424Z,40.61
2018-07-08T08:32:31.498Z,41.06
2018-07-08T08:35:01.402Z,39.87
2018-07-08T08:38:00.764Z,40.21
2018-07-08T08:40:30.111Z,40.29
2018-07-08T08:42:58.207Z,40.99
2018-07-08T08:45:27.688Z,40.23
2018-07-08T08:47:55.763Z,40.55
2018-07-08T08:50:23.827Z,40.48
2018-07-08T08:52:51.914Z,40.69
2018-07-08T08:55:20.048Z,39.72
2018-07-08T08:57:48.171Z,40.82
2018-07-08T09:00:18.272Z,40.56
2018-07-08T09:02:46.392Z,39.98
2018-07-08T09:05:14.469Z,39.73
2018-07-08T09:07:42.617Z,39.90
2018-07-08T09:10:10.674Z,39.23
2018-07-08T09:12:38.757Z,40.10
2018-07-08T09:15:06.844Z,39.38
2018-07-08T09:17:34.912Z,40.35
2018-07-08T09:20:03.010Z,39.33
2018-07-08T09:22:31.103Z,40.24
2018-07-08T09:24:59.206Z,39.29
2018-07-08T09:27:27.376Z,39.10
2018-07-08T09:29:55.450Z,40.13
2018-07-08T09:32:23.533Z,40.55
2018-07-08T09:34:51.620Z,39.87
2018-07-08T09:37:19.708Z,38.86
2018-07-08T09:39:48.096Z,38.91
2018-07-08T09:42:16.159Z,39.62
2018-07-08T09:44:44.348Z,39.10
2018-07-08T09:47:13.293Z,38.37
2018-07-08T09:49:41.398Z,39.77
2018-07-08T09:52:09.492Z,38.56
2018-07-08T09:54:37.581Z,38.17
2018-07-08T09:57:05.689Z,37.47
2018-07-08T09:59:33.761Z,39.39
2018-07-08T10:02:01.823Z,36.56
2018-07-08T10:04:30.592Z,37.35
2018-07-08T10:06:58.771Z,38.27
2018-07-08T10:09:26.823Z,37.96
2018-07-08T10:11:54.887Z,41.70
2018-07-08T10:14:24.137Z,41.43
2018-07-08T10:16:52.205Z,40.97
2018-07-08T10:19:20.920Z,41.45
2018-07-08T10:21:48.997Z,41.74
2018-07-08T10:24:17.139Z,38.64
2018-07-08T10:26:46.657Z,39.87
2018-07-08T10:29:17.282Z,39.07
2018-07-08T10:31:51.400Z,37.29
2018-07-08T10:34:19.759Z,40.79
2018-07-08T10:36:47.899Z,38.33
2018-07-08T10:39:16.554Z,37.38
2018-07-08T10:41:44.643Z,38.93
2018-07-08T10:44:13.072Z,35.72
2018-07-08T10:46:41.683Z,41.12
2018-07-08T10:49:10.146Z,38.94
2018-07-08T10:51:38.275Z,40.35
2018-07-08T10:54:06.819Z,40.97
2018-07-08T10:56:34.894Z,41.75
2018-07-08T10:59:02.967Z,40.48
2018-07-08T11:01:31.140Z,38.63
2018-07-08T11:03:59.229Z,39.21
2018-07-08T11:06:27.291Z,37.45
2018-07-08T11:08:55.358Z,36.11
2018-07-08T11:11:23.475Z,37.44
2018-07-08T11:13:51.539Z,35.35
2018-07-08T11:16:19.622Z,34.41
2018-07-08T11:18:47.740Z,32.76
2018-07-08T11:21:15.860Z,37.37
2018-07-08T11:23:43.959Z,34.32
2018-07-08T11:26:12.087Z,39.22
2018-07-08T11:28:40.277Z,38.13
2018-07-08T11:31:08.602Z,38.45
2018-07-08T11:33:36.695Z,36.90
2018-07-08T11:36:04.792Z,37.58
2018-07-08T11:38:33.154Z,37.72
2018-07-08T11:41:01.270Z,36.76
2018-07-08T11:43:29.915Z,36.21
2018-07-08T11:45:57.984Z,34.32
2018-07-08T11:48:26.131Z,31.90
2018-07-08T11:50:54.247Z,26.33
2018-07-08T11:53:22.364Z,31.33
2018-07-08T11:55:50.420Z,29.91
2018-07-08T11:58:18.515Z,25.70
2018-07-08T12:00:46.590Z,25.53
2018-07-08T12:03:14.888Z,25.01
2018-07-08T12:05:43.085Z,27.24
2018-07-08T12:08:11.504Z,23.00
2018-07-08T12:10:40.046Z,19.48
2018-07-08T12:13:08.292Z,21.08
2018-07-08T12:15:36.436Z,21.89
2018-07-08T12:18:04.879Z,19.71
2018-07-08T12:20:33.461Z,18.86
2018-07-08T12:23:01.524Z,21.79
2018-07-08T12:25:29.614Z,22.21
2018-07-08T12:27:57.671Z,18.03
2018-07-08T12:30:25.778Z,18.28
2018-07-08T12:32:53.895Z,18.71
2018-07-08T12:35:22.063Z,15.32
2018-07-08T12:37:50.136Z,20.26
2018-07-08T12:40:18.215Z,19.52
2018-07-08T12:42:46.271Z,20.19
2018-07-08T12:45:14.389Z,17.50
2018-07-08T12:47:42.455Z,14.12
2018-07-08T12:50:10.528Z,19.84
2018-07-08T12:52:38.846Z,16.34
2018-07-08T12:55:06.914Z,18.88
2018-07-08T12:57:35.401Z,19.37
2018-07-08T13:00:03.880Z,16.87
2018-07-08T13:02:31.968Z,18.14
2018-07-08T13:05:00.734Z,17.35
2018-07-08T13:07:28.828Z,13.85
2018-07-08T13:09:56.973Z,18.75
2018-07-08T13:12:25.074Z,13.05
2018-07-08T13:14:53.124Z,15.16
2018-07-08T13:17:21.191Z,15.73
2018-07-08T13:19:49.365Z,17.70
2018-07-08T13:22:17.499Z,16.08
2018-07-08T13:24:45.650Z,12.48
2018-07-08T13:27:13.899Z,15.08
2018-07-08T13:29:41.966Z,16.56
2018-07-08T13:32:10.153Z,17.47
2018-07-08T13:34:38.334Z,16.64
2018-07-08T13:37:06.479Z,15.91
2018-07-08T13:39:34.628Z,14.47
2018-07-08T13:42:02.710Z,14.52
2018-07-08T13:44:31.668Z,14.97
2018-07-08T13:46:59.808Z,15.13
2018-07-08T13:49:27.940Z,12.01
2018-07-08T13:51:55.995Z,15.38
2018-07-08T13:54:24.099Z,12.77
2018-07-08T13:56:52.186Z,12.62
2018-07-08T13:59:20.312Z,12.83
2018-07-08T14:01:48.732Z,13.31
2018-07-08T14:04:16.830Z,14.14
2018-07-08T14:06:44.909Z,13.93
2018-07-08T14:09:13.028Z,13.90
2018-07-08T14:11:41.039Z,12.32
2018-07-08T14:14:09.188Z,12.64
2018-07-08T14:16:37.212Z,12.53
2018-07-08T14:19:05.354Z,12.76
2018-07-08T14:21:33.852Z,12.50
2018-07-08T14:24:01.947Z,12.21
2018-07-08T14:26:29.995Z,10.55
2018-07-08T14:28:58.164Z,11.06
2018-07-08T14:31:26.275Z,12.07
2018-07-08T14:33:54.348Z,12.59
2018-07-08T14:36:22.452Z,12.21
2018-07-08T14:38:50.633Z,11.88
2018-07-08T14:41:18.724Z,12.04
2018-07-08T14:43:46.866Z,10.81
2018-07-08T14:46:15.054Z,11.29
2018-07-08T14:48:43.032Z,11.66
2018-07-08T14:51:11.132Z,10.57
2018-07-08T14:53:39.205Z,11.66
2018-07-08T14:56:07.287Z,10.21
2018-07-08T14:58:35.351Z,9.68
2018-07-08T15:01:03.603Z,12.43
2018-07-08T15:03:31.993Z,11.94
2018-07-08T15:06:00.088Z,11.91
2018-07-08T15:08:28.255Z,10.98
2018-07-08T15:10:56.423Z,11.60
2018-07-08T15:13:24.570Z,11.48
2018-07-08T15:15:52.833Z,10.76
2018-07-08T15:18:20.833Z,11.84
2018-07-08T15:20:48.978Z,11.12
2018-07-08T15:23:17.024Z,12.44
2018-07-08T15:25:45.124Z,11.66
2018-07-08T15:28:13.191Z,11.99
2018-07-08T15:33:32.222Z,11.51
2018-07-08T15:36:00.300Z,11.70
2018-07-08T15:38:28.344Z,12.19
2018-07-08T15:40:56.419Z,10.96
2018-07-08T15:43:24.539Z,11.39
2018-07-08T15:45:52.620Z,11.40
2018-07-08T15:48:20.660Z,10.84
2018-07-08T15:50:48.742Z,10.71
2018-07-08T15:53:16.803Z,11.53
2018-07-08T15:55:44.880Z,10.56
2018-07-08T15:58:13.043Z,12.04
2018-07-08T16:00:41.156Z,12.01
2018-07-08T16:03:09.218Z,10.22
2018-07-08T16:05:37.359Z,11.65
2018-07-08T16:08:05.535Z,13.35
2018-07-08T16:10:33.599Z,15.33
2018-07-08T16:13:02.268Z,15.50
2018-07-08T16:15:30.343Z,16.60
2018-07-08T16:17:58.557Z,16.84
2018-07-08T16:20:26.639Z,15.51
2018-07-08T16:22:55.040Z,17.86
2018-07-08T16:25:23.414Z,18.26
2018-07-08T16:27:51.550Z,17.80
2018-07-08T16:30:19.613Z,17.46
2018-07-08T16:32:47.746Z,16.43
2018-07-08T16:35:15.807Z,17.74
2018-07-08T16:37:43.855Z,17.52
2018-07-08T16:40:14.738Z,19.59
2018-07-08T16:42:43.538Z,19.01
2018-07-08T16:45:11.650Z,17.02
2018-07-08T16:47:39.821Z,17.89
2018-07-08T16:50:07.899Z,17.84
2018-07-08T16:52:35.946Z,20.00
2018-07-08T16:55:04.019Z,18.24
2018-07-08T16:57:32.513Z,19.77
2018-07-08T17:00:00.663Z,18.96
2018-07-08T17:02:28.825Z,18.43
2018-07-08T17:04:56.960Z,21.07
2018-07-08T17:07:25.029Z,20.34
2018-07-08T17:09:53.100Z,19.61
2018-07-08T17:12:21.151Z,21.12
2018-07-08T17:14:49.218Z,20.92
2018-07-08T17:17:17.285Z,21.82
2018-07-08T17:19:45.392Z,22.09
2018-07-08T17:22:13.591Z,20.57
2018-07-08T17:24:42.808Z,21.04
2018-07-08T17:27:10.885Z,21.34
2018-07-08T17:29:39.004Z,22.51
2018-07-08T17:32:07.104Z,22.48
2018-07-08T17:34:35.156Z,21.80
2018-07-08T17:37:03.235Z,22.38
2018-07-08T17:39:31.377Z,21.74
2018-07-08T17:41:59.483Z,21.64
2018-07-08T17:44:27.588Z,22.88
2018-07-08T17:46:55.643Z,22.95
2018-07-08T17:49:23.711Z,22.21
2018-07-08T17:51:51.791Z,22.33
2018-07-08T17:54:21.407Z,22.81
2018-07-08T17:56:49.452Z,23.11
2018-07-08T17:59:17.551Z,20.53
2018-07-08T18:01:45.607Z,21.19
2018-07-08T18:04:13.762Z,22.62
2018-07-08T18:06:41.876Z,22.60
2018-07-08T18:09:09.976Z,22.60
2018-07-08T18:11:38.048Z,22.78
2018-07-08T18:14:06.300Z,23.11
2018-07-08T18:16:34.462Z,23.22
2018-07-08T18:19:02.783Z,23.46
2018-07-08T18:21:30.894Z,22.80
2018-07-08T18:23:59.279Z,23.32
2018-07-08T18:26:27.342Z,24.18
2018-07-08T18:28:55.459Z,23.30
2018-07-08T18:31:23.641Z,23.72
2018-07-08T18:33:51.731Z,23.02
2018-07-08T18:36:19.840Z,23.04
2018-07-08T18:38:47.997Z,22.00
2018-07-08T18:41:16.054Z,22.09
2018-07-08T18:43:44.125Z,22.28
2018-07-08T18:46:12.193Z,24.49
2018-07-08T18:48:40.303Z,21.91
2018-07-08T18:51:08.371Z,23.89
2018-07-08T18:53:36.861Z,24.70
2018-07-08T18:56:05.029Z,23.15
2018-07-08T18:58:33.078Z,24.41
2018-07-08T19:01:01.201Z,23.39
2018-07-08T19:03:29.322Z,24.01
2018-07-08T19:05:57.376Z,23.11
2018-07-08T19:08:25.431Z,24.02
2018-07-08T19:10:53.484Z,25.07
2018-07-08T19:13:21.578Z,23.66
2018-07-08T19:15:49.739Z,24.27
2018-07-08T19:18:17.861Z,24.68
2018-07-08T19:20:45.976Z,24.54
2018-07-08T19:23:14.044Z,24.31
2018-07-08T19:25:42.191Z,25.05
2018-07-08T19:28:10.259Z,24.77
2018-07-08T19:30:38.362Z,25.00
2018-07-08T19:33:06.448Z,24.54
2018-07-08T19:35:34.509Z,24.56
2018-07-08T19:38:03.028Z,24.74
2018-07-08T19:40:31.131Z,24.52
2018-07-08T19:42:59.235Z,25.46
2018-07-08T19:45:27.304Z,25.21
2018-07-08T19:47:55.451Z,25.43
2018-07-08T19:50:23.567Z,26.72
2018-07-08T19:52:51.668Z,26.09
2018-07-08T19:55:19.723Z,26.32
2018-07-08T19:57:47.880Z,26.57
2018-07-08T20:00:15.980Z,26.61
2018-07-08T20:02:44.048Z,26.62
2018-07-08T20:05:12.099Z,26.42
2018-07-08T20:07:40.220Z,27.48
2018-07-08T20:10:08.207Z,27.85
2018-07-08T20:12:36.277Z,27.77
2018-07-08T20:15:04.334Z,28.04
2018-07-08T20:17:33.321Z,28.93
2018-07-08T20:20:01.390Z,28.45
2018-07-08T20:22:29.466Z,28.67
2018-07-08T20:24:57.542Z,28.20
2018-07-08T20:27:25.590Z,28.86
2018-07-08T20:29:53.644Z,28.42
2018-07-08T20:32:21.788Z,28.71
2018-07-08T20:34:49.851Z,28.86
2018-07-08T20:37:17.952Z,29.21
2018-07-08T20:39:46.008Z,30.47
2018-07-08T20:42:14.094Z,30.73
2018-07-08T20:44:42.167Z,30.18
2018-07-08T20:47:10.245Z,30.54
2018-07-08T20:49:38.339Z,30.60
2018-07-08T20:52:06.383Z,30.39
2018-07-08T20:54:34.443Z,31.03
2018-07-08T20:57:03.621Z,30.71
2018-07-08T20:59:31.843Z,31.30
2018-07-08T21:01:59.943Z,31.13
2018-07-08T21:04:28.020Z,31.17
2018-07-08T21:06:56.089Z,30.84
2018-07-08T21:09:24.176Z,30.99
2018-07-08T21:11:52.274Z,30.70
2018-07-08T21:14:20.347Z,32.13
2018-07-08T21:16:48.423Z,31.58
2018-07-08T21:19:16.540Z,32.63
2018-07-08T21:21:44.587Z,31.95
2018-07-08T21:24:12.659Z,33.43
2018-07-08T21:26:40.711Z,32.90
2018-07-08T21:29:08.789Z,32.93
2018-07-08T21:31:36.857Z,33.69
2018-07-08T21:34:04.920Z,33.16
2018-07-08T21:36:33.497Z,33.51
2018-07-08T21:39:01.554Z,34.31
2018-07-08T21:41:29.619Z,33.19
2018-07-08T21:43:57.667Z,33.17
2018-07-08T21:46:25.728Z,34.29
2018-07-08T21:48:53.798Z,34.41
2018-07-08T21:51:21.864Z,33.36
2018-07-08T21:53:49.946Z,33.95
2018-07-08T21:56:18.050Z,34.07
2018-07-08T21:58:46.152Z,34.68
2018-07-08T22:01:16.204Z,34.38
2018-07-08T22:03:44.923Z,34.73
2018-07-08T22:06:13.528Z,33.07
2018-07-08T22:08:41.591Z,34.39
2018-07-08T22:11:10.167Z,34.32
2018-07-08T22:13:38.849Z,33.89
2018-07-08T22:16:07.049Z,33.18
2018-07-08T22:18:35.476Z,32.76
2018-07-08T22:21:04.295Z,32.35
2018-07-08T22:23:32.768Z,32.73
2018-07-08T22:26:01.209Z,32.75
2018-07-08T22:28:29.417Z,33.79
2018-07-08T22:30:57.477Z,32.89
2018-07-08T22:33:25.579Z,33.16
2018-07-08T22:35:53.654Z,34.47
2018-07-08T22:38:21.834Z,34.75
2018-07-08T22:40:49.939Z,34.50
2018-07-08T22:43:18.060Z,34.61
2018-07-08T22:45:46.146Z,34.42
2018-07-08T22:48:14.251Z,35.34
2018-07-08T22:50:42.291Z,34.15
2018-07-08T22:53:10.367Z,35.83
2018-07-08T22:55:38.416Z,35.96
2018-07-08T22:58:06.550Z,35.14
2018-07-08T23:00:46.020Z,35.33
2018-07-08T23:04:25.149Z,36.24
2018-07-08T23:06:53.294Z,35.57
2018-07-08T23:09:22.077Z,35.46
2018-07-08T23:11:50.788Z,35.77
2018-07-08T23:14:20.592Z,36.72
2018-07-08T23:16:51.257Z,36.42
2018-07-08T23:19:19.687Z,36.70
2018-07-08T23:21:48.446Z,36.27
2018-07-08T23:24:16.542Z,36.04
2018-07-08T23:26:44.680Z,35.44
2018-07-08T23:29:12.740Z,34.66
2018-07-08T23:31:40.875Z,36.33
2018-07-08T23:34:08.900Z,35.32
2018-07-08T23:36:37.595Z,35.47
2018-07-08T23:39:06.131Z,35.68
2018-07-08T23:41:34.574Z,36.64
2018-07-08T23:44:02.688Z,36.42
2018-07-08T23:46:30.810Z,35.48
2018-07-08T23:48:59.796Z,36.59
2018-07-08T23:51:28.155Z,35.88
2018-07-08T23:53:56.289Z,35.54
2018-07-08T23:56:24.611Z,37.19
2018-07-08T23:58:52.999Z,36.94
